createdAt,value
2024-01-25T00:00:28.787Z,3.90
2024-01-25T00:05:31.006Z,4.70
2024-01-25T00:10:33.266Z,4.40
2024-01-25T00:16:35.332Z,4.60
2024-01-25T00:22:57.243Z,4.10
2024-01-25T00:29:19.115Z,3.80
2024-01-25T00:35:41.159Z,3.70
2024-01-25T00:42:03.216Z,4.10
2024-01-25T00:47:28.156Z,3.80
2024-01-25T00:52:30.728Z,3.00
2024-01-25T00:57:33.806Z,4.10
2024-01-25T01:02:41.451Z,4.20
2024-01-25T01:07:44.007Z,4.30
2024-01-25T01:12:46.464Z,3.50
2024-01-25T01:18:48.547Z,3.10
2024-01-25T01:25:10.493Z,3.40
2024-01-25T01:30:32.753Z,3.40
2024-01-25T01:36:34.791Z,3.00
2024-01-25T01:42:56.667Z,2.80
2024-01-25T01:49:28.866Z,4.00
2024-01-25T01:54:51.143Z,3.50
2024-01-25T01:59:53.552Z,4.10
2024-01-25T02:04:55.769Z,3.20
2024-01-25T02:10:57.582Z,4.20
2024-01-25T02:16:21.569Z,3.80
2024-01-25T02:21:23.913Z,3.50
2024-01-25T02:26:26.554Z,3.70
2024-01-25T02:31:29.112Z,2.60
2024-01-25T02:37:30.978Z,3.30
2024-01-25T02:43:52.870Z,3.00
2024-01-25T02:50:17.706Z,3.70
2024-01-25T02:56:39.539Z,2.70
2024-01-25T03:03:04.325Z,2.90
2024-01-25T03:09:06.184Z,3.00
2024-01-25T03:14:08.509Z,2.90
2024-01-25T03:19:11.958Z,3.40
2024-01-25T03:24:15.056Z,3.30
2024-01-25T03:29:17.111Z,3.40
2024-01-25T03:35:19.319Z,3.80
2024-01-25T03:41:41.148Z,3.40
2024-01-25T03:48:03.101Z,3.30
2024-01-25T03:54:24.946Z,2.90
2024-01-25T04:00:47.015Z,3.40
2024-01-25T04:06:09.268Z,3.00
2024-01-25T04:12:11.294Z,3.40
2024-01-25T04:18:33.348Z,3.10
2024-01-25T04:23:55.793Z,2.50
2024-01-25T04:28:58.222Z,2.90
2024-01-25T04:35:00.482Z,3.30
2024-01-25T04:41:22.537Z,2.40
2024-01-25T04:46:44.778Z,2.90
2024-01-25T04:51:47.002Z,2.90
2024-01-25T04:57:48.962Z,2.50
2024-01-25T05:03:10.862Z,3.30
2024-01-25T05:09:22.761Z,3.50
2024-01-25T05:15:44.806Z,3.40
2024-01-25T05:22:06.686Z,3.10
2024-01-25T05:28:28.578Z,3.70
2024-01-25T05:34:50.531Z,3.50
2024-01-25T05:40:30.242Z,3.20
2024-01-25T05:45:32.587Z,4.20
2024-01-25T05:50:35.417Z,4.30
2024-01-25T05:55:37.635Z,3.20
2024-01-25T06:00:40.054Z,4.20
2024-01-25T06:06:43.158Z,4.50
2024-01-25T06:13:42.600Z,4.60
2024-01-25T07:04:17.942Z,3.80
2024-01-25T07:11:10.513Z,4.30
2024-01-25T07:18:13.958Z,4.20
2024-01-25T07:25:08.247Z,4.80
2024-01-25T07:32:12.581Z,3.30
2024-01-25T07:39:16.289Z,4.00
2024-01-25T07:46:08.976Z,4.40
2024-01-25T07:52:55.396Z,4.50
2024-01-25T07:59:57.934Z,4.40
2024-01-25T08:06:33.532Z,5.90
2024-01-25T08:13:54.430Z,4.90
2024-01-25T08:20:59.114Z,3.90
2024-01-25T08:28:06.644Z,4.20
2024-01-25T08:35:10.416Z,3.80
2024-01-25T08:42:10.262Z,4.20
2024-01-25T08:49:17.235Z,4.30
2024-01-25T08:56:37.976Z,5.10
2024-01-25T09:03:43.206Z,4.70
2024-01-25T09:11:06.816Z,4.20
2024-01-25T09:17:24.950Z,4.60
2024-01-25T09:23:43.994Z,4.30
2024-01-25T09:30:36.600Z,4.20
2024-01-25T09:37:23.513Z,5.10
2024-01-25T09:44:03.886Z,4.70
2024-01-25T09:51:07.852Z,4.80
2024-01-25T09:57:51.482Z,5.40
2024-01-25T10:04:04.119Z,4.20
2024-01-25T10:11:22.902Z,4.60
2024-01-25T10:18:30.041Z,4.20
2024-01-25T10:25:34.316Z,3.90
2024-01-25T10:32:43.004Z,4.20
2024-01-25T10:40:12.662Z,4.10
2024-01-25T10:46:46.155Z,3.90
2024-01-25T11:07:38.881Z,5.30
2024-01-25T11:14:33.059Z,4.70
2024-01-25T11:21:37.450Z,4.60
2024-01-25T11:29:01.476Z,3.30
2024-01-25T11:36:10.538Z,3.90
2024-01-25T11:43:18.137Z,3.80
2024-01-25T11:50:12.721Z,4.10
2024-01-25T11:56:59.625Z,4.60
2024-01-25T12:03:59.342Z,4.60
2024-01-25T12:10:13.259Z,4.50
2024-01-25T12:17:00.034Z,5.60
2024-01-25T12:23:35.288Z,4.00
2024-01-25T12:30:27.118Z,4.20
2024-01-25T12:37:05.003Z,3.50
2024-01-25T12:43:22.312Z,5.10
2024-01-25T12:50:26.136Z,3.90
2024-01-25T12:57:28.769Z,4.70
2024-01-25T13:04:19.713Z,5.10
2024-01-25T13:11:22.239Z,3.60
2024-01-25T13:18:18.545Z,4.90
2024-01-25T13:25:22.594Z,4.90
2024-01-25T13:32:46.685Z,3.80
2024-01-25T13:40:11.707Z,3.60
2024-01-25T13:46:00.575Z,4.90
2024-01-25T13:52:24.956Z,4.60
2024-01-25T13:59:17.647Z,5.20
2024-01-25T14:06:10.549Z,5.40
2024-01-25T14:11:44.265Z,5.10
2024-01-25T14:18:08.610Z,5.20
2024-01-25T14:36:01.643Z,4.40
2024-01-25T14:43:00.421Z,4.70
2024-01-25T14:49:56.261Z,5.30
2024-01-25T14:57:00.052Z,4.50
2024-01-25T15:03:27.530Z,5.40
2024-01-25T15:10:32.498Z,4.40
2024-01-25T15:17:24.537Z,4.50
2024-01-25T15:24:24.093Z,4.90
2024-01-25T15:31:06.382Z,5.20
2024-01-25T15:37:45.696Z,5.20
2024-01-25T15:44:27.757Z,5.10
2024-01-25T15:51:10.771Z,6.10
2024-01-25T15:56:54.053Z,5.10
2024-01-25T16:03:20.372Z,5.20
2024-01-25T16:10:41.066Z,4.00
2024-01-25T16:17:27.184Z,4.50
2024-01-25T16:23:56.896Z,7.60
2024-01-25T16:30:08.822Z,5.40
2024-01-25T16:36:14.599Z,5.00
2024-01-25T16:43:18.283Z,4.40
2024-01-25T16:50:12.113Z,5.40
2024-01-25T16:57:05.061Z,4.90
2024-01-25T17:02:45.530Z,4.70
2024-01-25T17:09:30.285Z,5.30
2024-01-25T17:15:45.234Z,5.30
2024-01-25T17:28:09.649Z,4.30
2024-01-25T17:35:17.136Z,4.80
2024-01-25T17:41:40.819Z,5.40
2024-01-25T17:48:11.691Z,4.90
2024-01-25T17:55:04.050Z,4.60
2024-01-25T18:02:27.792Z,5.80
2024-01-25T18:09:13.778Z,5.00
2024-01-25T18:15:59.779Z,5.00
2024-01-25T18:22:47.027Z,4.50
2024-01-25T18:29:30.428Z,4.90
2024-01-25T18:36:38.011Z,5.10
2024-01-25T18:43:25.203Z,6.00
2024-01-25T18:50:08.954Z,5.00
2024-01-25T18:56:57.108Z,4.90
2024-01-25T19:04:20.767Z,5.80
2024-01-25T19:10:25.670Z,4.80
2024-01-25T19:16:04.756Z,5.30
2024-01-25T19:22:29.474Z,5.40
2024-01-25T19:28:17.268Z,5.70
2024-01-25T19:33:26.601Z,4.80
2024-01-25T19:38:53.121Z,6.70
2024-01-25T19:44:01.887Z,6.30
2024-01-25T19:50:08.682Z,5.10
2024-01-25T19:57:34.665Z,5.70
2024-01-25T20:03:56.735Z,5.20
2024-01-25T20:09:52.146Z,5.00
2024-01-25T20:16:51.731Z,6.20
2024-01-25T20:23:19.085Z,5.70
2024-01-25T20:29:09.056Z,5.50
2024-01-25T20:35:52.561Z,5.20
2024-01-25T20:42:30.291Z,6.50
2024-01-25T20:48:56.035Z,5.50
2024-01-25T20:54:04.552Z,5.60
2024-01-25T20:59:11.274Z,5.70
2024-01-25T21:04:17.150Z,5.20
2024-01-25T21:09:26.551Z,6.50
2024-01-25T21:14:38.034Z,6.30
2024-01-25T21:20:40.442Z,5.90
2024-01-25T21:27:06.273Z,5.60
2024-01-25T21:33:29.411Z,5.30
2024-01-25T21:39:51.980Z,5.90
2024-01-25T21:45:17.895Z,4.90
2024-01-25T21:51:01.836Z,6.30
2024-01-25T21:56:51.271Z,5.30
2024-01-25T22:02:00.145Z,5.90
2024-01-25T22:07:06.662Z,5.90
2024-01-25T22:12:10.788Z,4.80
2024-01-25T22:18:14.397Z,5.80
2024-01-25T22:25:24.915Z,5.30
2024-01-25T22:32:02.020Z,6.30
2024-01-25T22:38:48.570Z,4.60
2024-01-25T22:45:28.485Z,5.70
2024-01-25T22:52:32.520Z,5.10
2024-01-25T22:59:19.938Z,5.60
2024-01-25T23:05:48.755Z,5.30
2024-01-25T23:12:34.672Z,7.20
2024-01-25T23:19:58.665Z,6.40
2024-01-25T23:26:45.578Z,5.00
2024-01-25T23:33:49.240Z,4.20
2024-01-25T23:41:06.510Z,5.30
2024-01-25T23:47:33.324Z,5.40
2024-01-25T23:54:39.158Z,5.00
